createdAt,value
2022-07-27T00:01:20.583Z,18.47
2022-07-27T00:03:53.565Z,18.42
2022-07-27T00:06:26.423Z,18.39
2022-07-27T00:08:59.437Z,18.38
2022-07-27T00:11:32.935Z,18.34
2022-07-27T00:14:06.406Z,18.28
2022-07-27T00:16:39.796Z,18.27
2022-07-27T00:19:13.511Z,18.26
2022-07-27T00:21:46.667Z,18.24
2022-07-27T00:24:19.459Z,18.25
2022-07-27T00:26:52.321Z,18.27
2022-07-27T00:29:25.115Z,18.31
2022-07-27T00:31:58.736Z,18.31
2022-07-27T00:34:32.487Z,18.27
2022-07-27T00:37:05.960Z,18.23
2022-07-27T00:39:38.916Z,18.25
2022-07-27T00:42:12.429Z,18.28
2022-07-27T00:44:45.231Z,18.25
2022-07-27T00:47:18.054Z,18.23
2022-07-27T00:49:51.171Z,18.22
2022-07-27T00:52:25.172Z,18.17
2022-07-27T00:54:58.577Z,18.12
2022-07-27T00:57:32.431Z,18.07
2022-07-27T01:00:07.727Z,18.07
2022-07-27T01:02:43.980Z,18.07
2022-07-27T01:05:15.999Z,18.03
2022-07-27T01:07:51.292Z,17.98
2022-07-27T01:10:23.439Z,17.92
2022-07-27T01:12:56.118Z,17.90
2022-07-27T01:15:29.490Z,17.90
2022-07-27T01:18:03.500Z,17.88
2022-07-27T01:20:37.681Z,17.83
2022-07-27T01:23:11.666Z,17.77
2022-07-27T01:25:44.824Z,17.73
2022-07-27T01:28:18.349Z,17.70
2022-07-27T01:30:51.553Z,17.72
2022-07-27T01:33:26.549Z,17.76
2022-07-27T01:35:59.978Z,17.80
2022-07-27T01:38:33.317Z,17.83
2022-07-27T01:41:06.489Z,17.81
2022-07-27T01:43:39.995Z,17.80
2022-07-27T01:46:12.894Z,17.77
2022-07-27T01:48:45.994Z,17.73
2022-07-27T01:51:19.486Z,17.65
2022-07-27T01:53:53.507Z,17.59
2022-07-27T01:56:27.352Z,17.55
2022-07-27T01:59:00.319Z,17.55
2022-07-27T02:01:33.436Z,17.59
2022-07-27T02:04:06.289Z,17.60
2022-07-27T02:06:39.719Z,17.62
2022-07-27T02:09:13.112Z,17.67
2022-07-27T02:12:04.654Z,17.67
2022-07-27T02:14:37.743Z,17.67
2022-07-27T02:17:12.166Z,17.65
2022-07-27T02:19:45.663Z,17.66
2022-07-27T02:22:19.053Z,17.65
2022-07-27T02:24:51.808Z,17.64
2022-07-27T02:27:25.029Z,17.62
2022-07-27T02:29:58.209Z,17.63
2022-07-27T02:32:31.667Z,17.62
2022-07-27T02:35:19.494Z,17.62
2022-07-27T02:37:39.810Z,17.65
2022-07-27T02:40:15.563Z,17.70
2022-07-27T02:42:49.231Z,17.78
2022-07-27T02:45:22.335Z,17.81
2022-07-27T02:47:55.565Z,17.86
2022-07-27T02:50:28.481Z,17.89
2022-07-27T02:53:01.487Z,17.96
2022-07-27T02:55:34.897Z,17.99
2022-07-27T02:58:07.757Z,17.99
2022-07-27T03:00:41.339Z,17.99
2022-07-27T03:03:14.445Z,18.03
2022-07-27T03:05:48.970Z,18.08
2022-07-27T03:08:21.755Z,18.14
2022-07-27T03:10:54.530Z,18.19
2022-07-27T03:13:29.305Z,18.23
2022-07-27T03:16:02.224Z,18.29
2022-07-27T03:18:36.086Z,18.31
2022-07-27T03:21:09.480Z,18.37
2022-07-27T03:23:45.320Z,18.40
2022-07-27T03:26:19.479Z,18.43
2022-07-27T03:28:52.468Z,18.49
2022-07-27T03:31:25.333Z,18.53
2022-07-27T03:33:59.029Z,18.62
2022-07-27T03:36:32.885Z,18.72
2022-07-27T03:39:06.494Z,18.74
2022-07-27T03:41:39.374Z,18.72
2022-07-27T03:44:12.922Z,18.74
2022-07-27T03:46:46.293Z,18.78
2022-07-27T03:49:19.206Z,18.86
2022-07-27T03:51:52.163Z,19.00
2022-07-27T03:54:25.056Z,19.11
2022-07-27T03:56:57.792Z,19.23
2022-07-27T03:59:31.211Z,19.35
2022-07-27T04:02:05.061Z,19.49
2022-07-27T04:04:38.492Z,19.67
2022-07-27T04:07:12.154Z,19.85
2022-07-27T04:09:46.091Z,20.05
2022-07-27T04:12:20.867Z,20.24
2022-07-27T04:14:54.603Z,20.31
2022-07-27T04:17:53.247Z,20.31
2022-07-27T04:20:02.153Z,20.31
2022-07-27T04:22:35.392Z,20.35
2022-07-27T04:25:09.211Z,20.40
2022-07-27T04:27:42.702Z,20.41
2022-07-27T04:30:16.698Z,20.42
2022-07-27T04:32:50.211Z,20.41
2022-07-27T04:35:26.582Z,20.40
2022-07-27T04:37:59.814Z,20.42
2022-07-27T04:40:34.973Z,20.48
2022-07-27T04:43:08.042Z,20.57
2022-07-27T04:45:41.853Z,20.64
2022-07-27T04:48:14.879Z,20.67
2022-07-27T04:50:48.515Z,20.66
2022-07-27T04:53:21.320Z,20.64
2022-07-27T04:55:54.098Z,20.54
2022-07-27T04:58:27.533Z,20.48
2022-07-27T05:01:00.579Z,20.46
2022-07-27T05:03:34.157Z,20.51
2022-07-27T05:06:08.942Z,20.57
2022-07-27T05:08:41.859Z,20.66
2022-07-27T05:11:15.249Z,20.72
2022-07-27T05:13:48.125Z,20.80
2022-07-27T05:16:23.875Z,20.87
2022-07-27T05:18:55.608Z,20.89
2022-07-27T05:21:29.601Z,20.93
2022-07-27T05:24:02.592Z,20.99
2022-07-27T05:26:36.208Z,21.05
2022-07-27T05:29:11.934Z,21.11
2022-07-27T05:31:45.308Z,21.12
2022-07-27T05:34:18.889Z,21.10
2022-07-27T05:36:52.284Z,21.14
2022-07-27T05:39:25.242Z,21.18
2022-07-27T05:41:58.588Z,21.23
2022-07-27T05:44:31.464Z,21.22
2022-07-27T05:47:06.166Z,21.21
2022-07-27T05:49:39.615Z,21.15
2022-07-27T05:52:13.009Z,21.11
2022-07-27T05:54:46.456Z,21.08
2022-07-27T05:57:19.679Z,21.08
2022-07-27T05:59:54.180Z,21.16
2022-07-27T06:02:27.860Z,21.25
2022-07-27T06:05:00.969Z,21.33
2022-07-27T06:07:52.260Z,21.42
2022-07-27T06:10:26.595Z,21.48
2022-07-27T06:13:00.792Z,21.51
2022-07-27T06:15:34.380Z,21.57
2022-07-27T06:18:08.881Z,21.63
2022-07-27T06:20:43.419Z,21.64
2022-07-27T06:23:16.550Z,21.66
2022-07-27T06:25:50.531Z,21.72
2022-07-27T06:28:25.572Z,21.78
2022-07-27T06:30:58.442Z,21.85
2022-07-27T06:33:32.026Z,21.92
2022-07-27T06:36:06.141Z,21.99
2022-07-27T06:38:38.303Z,22.04
2022-07-27T06:41:10.972Z,22.07
2022-07-27T06:43:45.226Z,22.10
2022-07-27T06:46:18.512Z,22.18
2022-07-27T06:48:51.549Z,22.26
2022-07-27T06:51:25.524Z,22.30
2022-07-27T06:53:58.866Z,22.34
2022-07-27T06:56:32.058Z,22.40
2022-07-27T06:59:05.109Z,22.47
2022-07-27T07:01:38.448Z,22.53
2022-07-27T07:04:11.839Z,22.59
2022-07-27T07:06:45.500Z,22.63
2022-07-27T07:09:19.237Z,22.67
2022-07-27T07:11:52.030Z,22.73
2022-07-27T07:14:26.579Z,22.78
2022-07-27T07:17:01.901Z,22.81
2022-07-27T07:19:36.515Z,22.84
2022-07-27T07:22:09.462Z,22.82
2022-07-27T07:24:42.382Z,22.97
2022-07-27T07:27:16.604Z,22.97
2022-07-27T07:29:50.536Z,23.01
2022-07-27T07:32:28.885Z,23.06
2022-07-27T07:34:59.881Z,23.14
2022-07-27T07:37:33.902Z,23.20
2022-07-27T07:40:40.283Z,23.24
2022-07-27T07:42:56.609Z,23.30
2022-07-27T07:45:30.681Z,23.38
2022-07-27T07:48:04.072Z,23.47
2022-07-27T07:50:39.141Z,23.51
2022-07-27T07:53:11.947Z,23.58
2022-07-27T07:55:47.246Z,23.61
2022-07-27T07:58:21.046Z,23.64
2022-07-27T08:00:54.136Z,23.70
2022-07-27T08:03:27.005Z,23.74
2022-07-27T08:06:00.004Z,23.78
2022-07-27T08:08:34.839Z,23.81
2022-07-27T08:11:08.372Z,23.87
2022-07-27T08:13:41.274Z,23.99
2022-07-27T08:16:14.578Z,24.05
2022-07-27T08:18:48.328Z,24.13
2022-07-27T08:21:21.078Z,24.18
2022-07-27T08:23:54.589Z,24.23
2022-07-27T08:26:29.162Z,24.30
2022-07-27T08:29:04.415Z,24.37
2022-07-27T08:31:52.093Z,24.47
2022-07-27T08:34:12.245Z,24.53
2022-07-27T08:36:45.758Z,24.59
2022-07-27T08:40:05.766Z,24.66
2022-07-27T08:41:57.834Z,24.71
2022-07-27T08:44:31.855Z,24.75
2022-07-27T08:47:06.013Z,24.79
2022-07-27T08:49:44.248Z,24.80
2022-07-27T08:52:18.298Z,24.82
2022-07-27T08:54:53.492Z,24.88
2022-07-27T08:57:26.513Z,24.94
2022-07-27T08:59:59.642Z,24.97
2022-07-27T09:02:32.962Z,25.02
2022-07-27T09:05:07.181Z,25.08
2022-07-27T09:07:39.448Z,25.17
2022-07-27T09:10:13.152Z,25.24
2022-07-27T09:12:47.451Z,25.26
2022-07-27T09:15:20.432Z,25.26
2022-07-27T09:17:53.436Z,25.24
2022-07-27T09:20:26.301Z,25.23
2022-07-27T09:22:59.173Z,25.20
2022-07-27T09:28:08.907Z,25.25
2022-07-27T09:30:45.261Z,25.31
2022-07-27T09:33:18.378Z,25.37
2022-07-27T09:35:56.081Z,25.38
2022-07-27T09:38:29.168Z,25.39
2022-07-27T09:41:05.273Z,25.43
2022-07-27T09:46:38.383Z,25.49
2022-07-27T09:49:33.779Z,25.51
2022-07-27T09:52:06.887Z,25.54
2022-07-27T09:54:47.827Z,25.58
2022-07-27T09:57:21.311Z,25.61
2022-07-27T10:00:14.306Z,25.66
2022-07-27T10:02:47.417Z,25.72
2022-07-27T10:05:22.196Z,25.78
2022-07-27T10:07:56.128Z,25.82
2022-07-27T10:10:29.119Z,25.85
2022-07-27T10:13:02.101Z,25.86
2022-07-27T10:15:36.408Z,25.89
2022-07-27T10:18:34.881Z,25.92
2022-07-27T10:21:12.379Z,25.94
2022-07-27T10:23:57.438Z,25.98
2022-07-27T10:26:38.025Z,26.03
2022-07-27T10:29:20.953Z,26.07
2022-07-27T10:32:00.633Z,26.11
2022-07-27T10:34:42.279Z,26.13
2022-07-27T10:37:19.297Z,26.19
2022-07-27T10:40:26.372Z,26.28
2022-07-27T10:43:21.191Z,26.36
2022-07-27T10:46:01.656Z,26.48
2022-07-27T10:48:48.711Z,26.55
2022-07-27T10:51:19.420Z,26.59
2022-07-27T10:54:12.015Z,26.63
2022-07-27T10:56:49.294Z,26.69
2022-07-27T11:02:24.341Z,26.82
2022-07-27T11:04:59.263Z,26.86
2022-07-27T11:07:44.358Z,26.84
2022-07-27T11:10:07.974Z,26.81
2022-07-27T11:12:43.095Z,26.81
2022-07-27T11:15:15.333Z,26.82
2022-07-27T11:18:03.253Z,26.85
2022-07-27T11:20:31.325Z,26.89
2022-07-27T11:23:48.907Z,26.97
2022-07-27T11:25:38.874Z,27.03
2022-07-27T11:28:11.899Z,27.12
2022-07-27T11:30:45.612Z,27.18
2022-07-27T11:33:18.949Z,27.24
2022-07-27T11:36:01.737Z,27.28
2022-07-27T11:38:51.935Z,27.30
2022-07-27T11:41:55.855Z,27.33
2022-07-27T11:44:16.005Z,27.30
2022-07-27T11:46:51.294Z,27.31
2022-07-27T11:49:29.815Z,27.36
2022-07-27T11:52:09.832Z,27.38
2022-07-27T11:54:43.718Z,27.40
2022-07-27T11:57:19.265Z,27.42
2022-07-27T11:59:52.235Z,27.46
2022-07-27T12:02:26.951Z,27.51
2022-07-27T12:05:02.811Z,27.54
2022-07-27T12:07:36.652Z,27.59
2022-07-27T12:10:10.673Z,27.61
2022-07-27T12:12:49.686Z,27.60
2022-07-27T12:17:58.879Z,27.62
2022-07-27T12:20:37.430Z,27.65
2022-07-27T12:23:11.628Z,27.68
2022-07-27T12:25:45.443Z,27.70
2022-07-27T12:28:22.401Z,27.75
2022-07-27T12:30:55.466Z,27.80
2022-07-27T12:33:37.568Z,27.85
2022-07-27T12:36:11.978Z,27.86
2022-07-27T12:38:52.381Z,27.81
2022-07-27T12:41:32.227Z,27.75
2022-07-27T12:44:12.398Z,27.75
2022-07-27T12:46:58.561Z,27.75
2022-07-27T12:49:41.958Z,27.74
2022-07-27T12:52:13.529Z,27.75
2022-07-27T12:54:47.180Z,27.77
2022-07-27T12:57:46.343Z,27.80
2022-07-27T12:59:54.814Z,27.80
2022-07-27T13:02:27.835Z,27.80
2022-07-27T13:05:00.887Z,27.83
2022-07-27T13:07:34.577Z,27.87
2022-07-27T13:10:11.845Z,27.89
2022-07-27T13:12:45.602Z,27.92
2022-07-27T13:15:20.211Z,27.96
2022-07-27T13:17:53.296Z,28.00
2022-07-27T13:20:27.034Z,28.04
2022-07-27T13:22:59.071Z,28.12
2022-07-27T13:25:32.018Z,28.19
2022-07-27T13:28:05.178Z,28.22
2022-07-27T13:30:38.334Z,28.23
2022-07-27T13:33:11.848Z,28.24
2022-07-27T13:35:46.108Z,28.26
2022-07-27T13:38:20.134Z,28.31
2022-07-27T13:40:55.035Z,28.36
2022-07-27T13:43:28.587Z,28.36
2022-07-27T13:46:03.587Z,28.34
2022-07-27T13:48:37.473Z,28.35
2022-07-27T13:51:11.878Z,28.39
2022-07-27T13:53:44.727Z,28.41
2022-07-27T13:56:18.161Z,28.43
2022-07-27T13:58:52.841Z,28.48
2022-07-27T14:01:25.848Z,28.48
2022-07-27T14:03:58.863Z,28.48
2022-07-27T14:06:33.731Z,28.45
2022-07-27T14:09:08.740Z,28.43
2022-07-27T14:11:52.930Z,28.43
2022-07-27T14:14:24.275Z,28.42
2022-07-27T14:16:56.085Z,28.42
2022-07-27T14:19:30.630Z,28.43
2022-07-27T14:22:03.562Z,28.47
2022-07-27T14:24:38.195Z,28.49
2022-07-27T14:27:11.935Z,28.48
2022-07-27T14:29:44.854Z,28.46
2022-07-27T14:32:18.272Z,28.43
2022-07-27T14:34:52.957Z,28.40
2022-07-27T14:37:25.343Z,28.39
2022-07-27T14:39:58.908Z,28.40
2022-07-27T14:42:31.862Z,28.38
2022-07-27T14:45:06.779Z,28.37
2022-07-27T14:47:39.842Z,28.38
2022-07-27T14:50:12.943Z,28.37
2022-07-27T14:52:45.952Z,28.39
2022-07-27T14:55:18.983Z,28.42
2022-07-27T14:57:52.331Z,28.43
2022-07-27T15:00:25.430Z,28.44
2022-07-27T15:02:58.220Z,28.46
2022-07-27T15:05:33.508Z,28.46
2022-07-27T15:08:08.684Z,28.45
2022-07-27T15:10:43.895Z,28.43
2022-07-27T15:13:18.413Z,28.39
2022-07-27T15:15:53.293Z,28.36
2022-07-27T15:18:26.637Z,28.31
2022-07-27T15:20:59.924Z,28.29
2022-07-27T15:23:33.211Z,28.33
2022-07-27T15:26:06.856Z,28.50
2022-07-27T15:28:40.022Z,28.78
2022-07-27T15:31:13.597Z,28.99
2022-07-27T15:33:46.636Z,29.05
2022-07-27T15:36:32.545Z,29.02
2022-07-27T15:38:54.064Z,29.00
2022-07-27T15:41:27.469Z,28.93
2022-07-27T15:44:01.503Z,28.84
2022-07-27T15:46:35.563Z,28.75
2022-07-27T15:49:08.446Z,28.65
2022-07-27T15:51:41.325Z,28.57
2022-07-27T15:54:15.583Z,28.46
2022-07-27T15:56:48.679Z,28.39
2022-07-27T15:59:22.203Z,28.39
2022-07-27T16:01:56.607Z,28.48
2022-07-27T16:04:31.180Z,28.68
2022-07-27T16:07:04.081Z,28.85
2022-07-27T16:09:38.298Z,29.02
2022-07-27T16:12:13.619Z,29.15
2022-07-27T16:14:48.248Z,29.23
2022-07-27T16:17:21.533Z,29.31
2022-07-27T16:19:55.129Z,29.43
2022-07-27T16:22:29.322Z,29.56
2022-07-27T16:25:02.269Z,29.64
2022-07-27T16:27:35.201Z,29.65
2022-07-27T16:30:08.788Z,29.55
2022-07-27T16:32:42.027Z,29.33
2022-07-27T16:35:15.478Z,29.01
2022-07-27T16:37:49.068Z,28.70
2022-07-27T16:40:22.097Z,28.40
2022-07-27T16:42:56.518Z,28.14
2022-07-27T16:45:29.565Z,27.88
2022-07-27T16:48:02.475Z,27.67
2022-07-27T16:50:36.084Z,27.48
2022-07-27T16:53:09.079Z,27.31
2022-07-27T16:55:42.308Z,27.14
2022-07-27T16:58:16.273Z,26.99
2022-07-27T17:00:49.358Z,26.84
2022-07-27T17:03:23.353Z,26.70
2022-07-27T17:06:00.853Z,26.57
2022-07-27T17:08:33.490Z,26.44
2022-07-27T17:11:06.984Z,26.31
2022-07-27T17:13:44.553Z,26.19
2022-07-27T17:16:16.926Z,26.09
2022-07-27T17:18:50.847Z,25.97
2022-07-27T17:21:24.097Z,25.88
2022-07-27T17:23:57.207Z,25.77
2022-07-27T17:26:30.169Z,25.67
2022-07-27T17:29:03.122Z,25.57
2022-07-27T17:31:36.276Z,25.49
2022-07-27T17:34:09.303Z,25.38
2022-07-27T17:36:42.934Z,25.31
2022-07-27T17:39:17.287Z,25.23
2022-07-27T17:41:51.905Z,25.16
2022-07-27T17:44:25.036Z,25.10
2022-07-27T17:46:58.018Z,25.04
2022-07-27T17:49:31.238Z,24.98
2022-07-27T17:52:04.648Z,24.92
2022-07-27T17:54:37.489Z,24.86
2022-07-27T17:57:11.050Z,24.86
2022-07-27T17:59:44.617Z,24.84
2022-07-27T18:02:19.071Z,24.83
2022-07-27T18:04:53.065Z,24.79
2022-07-27T18:07:27.816Z,24.75
2022-07-27T18:10:00.621Z,24.69
2022-07-27T18:12:35.436Z,24.69
2022-07-27T18:15:28.086Z,24.66
2022-07-27T18:18:01.207Z,24.62
2022-07-27T18:20:34.488Z,24.54
2022-07-27T18:23:08.860Z,24.47
2022-07-27T18:25:42.064Z,24.41
2022-07-27T18:28:16.474Z,24.33
2022-07-27T18:30:53.063Z,24.27
2022-07-27T18:33:26.511Z,24.22
2022-07-27T18:36:01.054Z,24.15
2022-07-27T18:38:34.047Z,24.09
2022-07-27T18:41:07.099Z,24.02
2022-07-27T18:43:40.113Z,23.96
2022-07-27T18:46:13.185Z,23.90
2022-07-27T18:48:46.932Z,23.83
2022-07-27T18:51:20.595Z,23.78
2022-07-27T18:53:53.465Z,23.72
2022-07-27T18:56:26.135Z,23.66
2022-07-27T18:58:58.984Z,23.62
2022-07-27T19:01:32.090Z,23.58
2022-07-27T19:04:05.119Z,23.55
2022-07-27T19:06:38.796Z,23.49
2022-07-27T19:09:13.241Z,23.45
2022-07-27T19:11:46.404Z,23.40
2022-07-27T19:14:21.973Z,23.38
2022-07-27T19:16:55.601Z,23.33
2022-07-27T19:19:29.325Z,23.28
2022-07-27T19:22:02.922Z,23.25
2022-07-27T19:24:35.959Z,23.21
2022-07-27T19:27:08.740Z,23.17
2022-07-27T19:29:42.846Z,23.12
2022-07-27T19:32:17.077Z,23.12
2022-07-27T19:34:50.875Z,23.10
2022-07-27T19:37:25.966Z,23.08
2022-07-27T19:40:14.424Z,23.09
2022-07-27T19:42:34.983Z,23.03
2022-07-27T19:45:09.242Z,23.02
2022-07-27T19:47:42.469Z,22.98
2022-07-27T19:50:15.547Z,22.94
2022-07-27T19:52:48.494Z,22.89
2022-07-27T19:55:21.332Z,22.85
2022-07-27T19:57:54.175Z,22.83
2022-07-27T20:00:27.653Z,22.81
2022-07-27T20:03:00.517Z,22.79
2022-07-27T20:05:33.805Z,22.74
2022-07-27T20:08:07.393Z,22.71
2022-07-27T20:10:41.439Z,22.67
2022-07-27T20:13:14.995Z,22.64
2022-07-27T20:15:48.236Z,22.60
2022-07-27T20:18:22.139Z,22.55
2022-07-27T20:20:58.246Z,22.54
2022-07-27T20:23:31.167Z,22.53
2022-07-27T20:26:04.251Z,22.50
2022-07-27T20:28:38.086Z,22.43
2022-07-27T20:31:11.407Z,22.37
2022-07-27T20:33:44.600Z,22.29
2022-07-27T20:36:17.771Z,22.23
2022-07-27T20:38:50.776Z,22.20
2022-07-27T20:41:24.305Z,22.15
2022-07-27T20:43:56.980Z,22.09
2022-07-27T20:46:30.214Z,22.03
2022-07-27T20:49:03.320Z,22.03
2022-07-27T20:51:36.468Z,22.02
2022-07-27T20:54:09.665Z,22.02
2022-07-27T20:56:42.530Z,22.01
2022-07-27T20:59:16.800Z,22.01
2022-07-27T21:01:50.223Z,21.99
2022-07-27T21:04:24.248Z,21.97
2022-07-27T21:06:57.134Z,21.97
2022-07-27T21:09:31.860Z,21.95
2022-07-27T21:12:05.211Z,21.94
2022-07-27T21:14:39.755Z,21.96
2022-07-27T21:17:13.754Z,21.96
2022-07-27T21:19:47.631Z,21.97
2022-07-27T21:22:20.972Z,21.94
2022-07-27T21:24:54.339Z,21.90
2022-07-27T21:27:27.271Z,21.87
2022-07-27T21:30:01.489Z,21.86
2022-07-27T21:32:34.579Z,21.85
2022-07-27T21:35:08.237Z,21.84
2022-07-27T21:37:40.959Z,21.81
2022-07-27T21:40:14.014Z,21.81
2022-07-27T21:42:47.748Z,21.80
2022-07-27T21:45:20.936Z,21.79
2022-07-27T21:47:54.133Z,21.77
2022-07-27T21:50:26.814Z,21.74
2022-07-27T21:53:00.339Z,21.72
2022-07-27T21:55:34.050Z,21.69
2022-07-27T21:58:07.002Z,21.66
2022-07-27T22:00:40.118Z,21.64
2022-07-27T22:03:15.018Z,21.61
2022-07-27T22:05:48.040Z,21.62
2022-07-27T22:08:20.863Z,21.62
2022-07-27T22:10:53.794Z,21.60
2022-07-27T22:13:27.281Z,21.57
2022-07-27T22:16:00.433Z,21.54
2022-07-27T22:18:34.287Z,21.52
2022-07-27T22:21:07.280Z,21.47
2022-07-27T22:23:41.394Z,21.43
2022-07-27T22:26:14.250Z,21.40
2022-07-27T22:28:47.134Z,21.38
2022-07-27T22:31:22.544Z,21.34
2022-07-27T22:33:55.959Z,21.28
2022-07-27T22:36:28.732Z,21.23
2022-07-27T22:39:01.590Z,21.21
2022-07-27T22:41:34.447Z,21.18
2022-07-27T22:44:07.539Z,21.15
2022-07-27T22:46:40.543Z,21.10
2022-07-27T22:49:13.733Z,21.06
2022-07-27T22:51:50.355Z,20.99
2022-07-27T22:54:22.438Z,20.93
2022-07-27T22:56:55.870Z,20.89
2022-07-27T22:59:28.972Z,20.86
2022-07-27T23:02:02.216Z,20.85
2022-07-27T23:04:36.041Z,20.84
2022-07-27T23:07:09.157Z,20.83
2022-07-27T23:09:42.503Z,20.82
2022-07-27T23:12:15.262Z,20.83
2022-07-27T23:14:49.264Z,20.85
2022-07-27T23:17:22.854Z,20.86
2022-07-27T23:19:56.391Z,20.84
2022-07-27T23:22:29.495Z,20.80
2022-07-27T23:25:04.004Z,20.75
2022-07-27T23:27:39.958Z,20.73
2022-07-27T23:30:13.448Z,20.71
2022-07-27T23:32:46.203Z,20.69
2022-07-27T23:35:19.274Z,20.67
2022-07-27T23:37:52.554Z,20.64
2022-07-27T23:40:25.427Z,20.61
2022-07-27T23:42:58.289Z,20.59
2022-07-27T23:45:31.249Z,20.55
2022-07-27T23:48:04.440Z,20.54
2022-07-27T23:50:38.774Z,20.54
2022-07-27T23:53:11.831Z,20.53
2022-07-27T23:55:45.502Z,20.48
2022-07-27T23:58:19.018Z,20.47
